sensor_id;sensor_type;location;lat;lon;timestamp;P1;durP1;ratioP1;P2;durP2;ratioP2
69172;SDS011;56280;49.662;8.408;2023-03-01T00:00:51;24.55;;;21.95;;
69172;SDS011;56280;49.662;8.408;2023-03-01T00:03:16;24.77;;;21.90;;
69172;SDS011;56280;49.662;8.408;2023-03-01T00:05:45;28.17;;;22.00;;
69172;SDS011;56280;49.662;8.408;2023-03-01T00:08:11;23.77;;;21.25;;
69172;SDS011;56280;49.662;8.408;2023-03-01T00:10:37;25.00;;;21.27;;
69172;SDS011;56280;49.662;8.408;2023-03-01T00:13:02;23.30;;;20.60;;
69172;SDS011;56280;49.662;8.408;2023-03-01T00:15:30;27.67;;;22.13;;
69172;SDS011;56280;49.662;8.408;2023-03-01T00:17:59;28.02;;;22.08;;
69172;SDS011;56280;49.662;8.408;2023-03-01T00:20:25;23.87;;;20.37;;
69172;SDS011;56280;49.662;8.408;2023-03-01T00:22:50;25.80;;;23.10;;
69172;SDS011;56280;49.662;8.408;2023-03-01T00:25:15;25.60;;;22.80;;
69172;SDS011;56280;49.662;8.408;2023-03-01T00:27:40;25.00;;;21.87;;
69172;SDS011;56280;49.662;8.408;2023-03-01T00:30:06;24.90;;;21.23;;
69172;SDS011;56280;49.662;8.408;2023-03-01T00:32:32;24.60;;;22.10;;
69172;SDS011;56280;49.662;8.408;2023-03-01T00:34:57;25.20;;;22.27;;
69172;SDS011;56280;49.662;8.408;2023-03-01T00:37:23;24.10;;;21.37;;
69172;SDS011;56280;49.662;8.408;2023-03-01T00:39:49;25.58;;;22.85;;
69172;SDS011;56280;49.662;8.408;2023-03-01T00:42:14;25.90;;;23.10;;
69172;SDS011;56280;49.662;8.408;2023-03-01T00:44:40;24.38;;;21.52;;
69172;SDS011;56280;49.662;8.408;2023-03-01T00:47:05;25.63;;;22.40;;
69172;SDS011;56280;49.662;8.408;2023-03-01T00:49:30;26.10;;;22.50;;
69172;SDS011;56280;49.662;8.408;2023-03-01T00:51:56;27.03;;;24.13;;
69172;SDS011;56280;49.662;8.408;2023-03-01T00:54:21;28.13;;;24.17;;
69172;SDS011;56280;49.662;8.408;2023-03-01T00:56:46;27.17;;;21.67;;
69172;SDS011;56280;49.662;8.408;2023-03-01T00:59:12;25.90;;;23.10;;
69172;SDS011;56280;49.662;8.408;2023-03-01T01:01:37;25.70;;;22.90;;
69172;SDS011;56280;49.662;8.408;2023-03-01T01:04:04;27.00;;;21.50;;
69172;SDS011;56280;49.662;8.408;2023-03-01T01:06:32;25.67;;;22.95;;
69172;SDS011;56280;49.662;8.408;2023-03-01T01:09:00;26.92;;;23.92;;
69172;SDS011;56280;49.662;8.408;2023-03-01T01:11:27;27.37;;;22.20;;
69172;SDS011;56280;49.662;8.408;2023-03-01T01:13:54;25.35;;;21.70;;
69172;SDS011;56280;49.662;8.408;2023-03-01T01:16:20;25.15;;;22.45;;
69172;SDS011;56280;49.662;8.408;2023-03-01T01:18:48;25.27;;;21.85;;
69172;SDS011;56280;49.662;8.408;2023-03-01T01:21:14;27.30;;;24.17;;
69172;SDS011;56280;49.662;8.408;2023-03-01T01:23:42;25.10;;;21.63;;
69172;SDS011;56280;49.662;8.408;2023-03-01T01:26:28;27.40;;;24.40;;
69172;SDS011;56280;49.662;8.408;2023-03-01T01:28:55;27.55;;;24.50;;
69172;SDS011;56280;49.662;8.408;2023-03-01T01:31:21;25.40;;;22.60;;
69172;SDS011;56280;49.662;8.408;2023-03-01T01:33:48;27.08;;;23.52;;
69172;SDS011;56280;49.662;8.408;2023-03-01T01:36:14;26.60;;;22.52;;
69172;SDS011;56280;49.662;8.408;2023-03-01T01:38:39;27.33;;;22.53;;
69172;SDS011;56280;49.662;8.408;2023-03-01T01:41:07;29.27;;;23.45;;
69172;SDS011;56280;49.662;8.408;2023-03-01T01:43:37;27.13;;;22.60;;
69172;SDS011;56280;49.662;8.408;2023-03-01T01:48:57;29.08;;;23.70;;
69172;SDS011;56280;49.662;8.408;2023-03-01T01:51:27;27.13;;;22.77;;
69172;SDS011;56280;49.662;8.408;2023-03-01T01:54:03;30.30;;;22.73;;
69172;SDS011;56280;49.662;8.408;2023-03-01T01:56:34;28.42;;;23.30;;
69172;SDS011;56280;49.662;8.408;2023-03-01T01:59:05;27.90;;;22.98;;
69172;SDS011;56280;49.662;8.408;2023-03-01T02:01:30;28.77;;;23.23;;
69172;SDS011;56280;49.662;8.408;2023-03-01T02:03:56;26.33;;;23.50;;
69172;SDS011;56280;49.662;8.408;2023-03-01T02:06:23;28.53;;;22.20;;
69172;SDS011;56280;49.662;8.408;2023-03-01T02:08:53;26.33;;;22.83;;
69172;SDS011;56280;49.662;8.408;2023-03-01T02:11:22;27.67;;;24.67;;
69172;SDS011;56280;49.662;8.408;2023-03-01T02:13:48;30.40;;;25.17;;
69172;SDS011;56280;49.662;8.408;2023-03-01T02:16:15;27.52;;;24.20;;
69172;SDS011;56280;49.662;8.408;2023-03-01T02:18:41;27.10;;;22.53;;
69172;SDS011;56280;49.662;8.408;2023-03-01T02:21:11;26.98;;;23.90;;
69172;SDS011;56280;49.662;8.408;2023-03-01T02:23:42;26.08;;;22.95;;
69172;SDS011;56280;49.662;8.408;2023-03-01T02:26:21;29.20;;;24.87;;
69172;SDS011;56280;49.662;8.408;2023-03-01T02:28:52;28.93;;;23.60;;
69172;SDS011;56280;49.662;8.408;2023-03-01T02:31:19;29.47;;;25.03;;
69172;SDS011;56280;49.662;8.408;2023-03-01T02:34:04;27.97;;;23.87;;
69172;SDS011;56280;49.662;8.408;2023-03-01T02:36:33;28.52;;;24.35;;
69172;SDS011;56280;49.662;8.408;2023-03-01T02:39:02;29.77;;;24.40;;
69172;SDS011;56280;49.662;8.408;2023-03-01T02:41:32;27.93;;;23.50;;
69172;SDS011;56280;49.662;8.408;2023-03-01T02:44:00;28.05;;;23.52;;
69172;SDS011;56280;49.662;8.408;2023-03-01T02:46:27;29.10;;;24.20;;
69172;SDS011;56280;49.662;8.408;2023-03-01T02:48:53;29.10;;;22.43;;
69172;SDS011;56280;49.662;8.408;2023-03-01T02:56:53;31.02;;;24.80;;
69172;SDS011;56280;49.662;8.408;2023-03-01T02:59:20;29.77;;;24.67;;
69172;SDS011;56280;49.662;8.408;2023-03-01T03:01:49;28.80;;;23.13;;
69172;SDS011;56280;49.662;8.408;2023-03-01T03:04:16;28.52;;;24.52;;
69172;SDS011;56280;49.662;8.408;2023-03-01T03:06:43;29.95;;;23.00;;
69172;SDS011;56280;49.662;8.408;2023-03-01T03:09:09;29.87;;;23.40;;
69172;SDS011;56280;49.662;8.408;2023-03-01T03:11:35;30.42;;;23.77;;
69172;SDS011;56280;49.662;8.408;2023-03-01T03:14:01;28.80;;;24.83;;
69172;SDS011;56280;49.662;8.408;2023-03-01T03:16:27;29.92;;;24.20;;
69172;SDS011;56280;49.662;8.408;2023-03-01T03:18:54;29.70;;;24.38;;
69172;SDS011;56280;49.662;8.408;2023-03-01T03:21:20;29.53;;;23.67;;
69172;SDS011;56280;49.662;8.408;2023-03-01T03:23:45;31.63;;;23.87;;
69172;SDS011;56280;49.662;8.408;2023-03-01T03:26:10;27.57;;;23.03;;
69172;SDS011;56280;49.662;8.408;2023-03-01T03:28:38;30.80;;;23.85;;
69172;SDS011;56280;49.662;8.408;2023-03-01T03:31:05;29.70;;;24.08;;
69172;SDS011;56280;49.662;8.408;2023-03-01T03:33:31;31.52;;;24.85;;
69172;SDS011;56280;49.662;8.408;2023-03-01T03:35:57;30.40;;;23.23;;
69172;SDS011;56280;49.662;8.408;2023-03-01T03:38:23;29.13;;;24.05;;
69172;SDS011;56280;49.662;8.408;2023-03-01T03:40:50;30.40;;;24.13;;
69172;SDS011;56280;49.662;8.408;2023-03-01T03:43:21;30.30;;;25.30;;
69172;SDS011;56280;49.662;8.408;2023-03-01T03:45:48;31.25;;;24.88;;
69172;SDS011;56280;49.662;8.408;2023-03-01T03:48:14;29.98;;;24.55;;
69172;SDS011;56280;49.662;8.408;2023-03-01T03:50:41;29.05;;;24.23;;
69172;SDS011;56280;49.662;8.408;2023-03-01T03:53:08;32.13;;;26.13;;
69172;SDS011;56280;49.662;8.408;2023-03-01T03:55:35;28.88;;;24.48;;
69172;SDS011;56280;49.662;8.408;2023-03-01T03:58:04;31.10;;;23.92;;
69172;SDS011;56280;49.662;8.408;2023-03-01T04:00:35;30.85;;;25.33;;
69172;SDS011;56280;49.662;8.408;2023-03-01T04:03:04;32.30;;;24.70;;
69172;SDS011;56280;49.662;8.408;2023-03-01T04:05:30;29.43;;;24.87;;
69172;SDS011;56280;49.662;8.408;2023-03-01T04:07:56;29.85;;;23.42;;
69172;SDS011;56280;49.662;8.408;2023-03-01T04:10:29;30.05;;;24.67;;
69172;SDS011;56280;49.662;8.408;2023-03-01T04:12:56;31.60;;;24.75;;
69172;SDS011;56280;49.662;8.408;2023-03-01T04:15:22;31.23;;;25.60;;
69172;SDS011;56280;49.662;8.408;2023-03-01T04:17:49;29.75;;;24.88;;
69172;SDS011;56280;49.662;8.408;2023-03-01T04:20:17;29.85;;;25.08;;
69172;SDS011;56280;49.662;8.408;2023-03-01T04:22:52;31.33;;;24.80;;
69172;SDS011;56280;49.662;8.408;2023-03-01T04:25:22;30.45;;;24.92;;
69172;SDS011;56280;49.662;8.408;2023-03-01T04:27:48;30.30;;;23.93;;
69172;SDS011;56280;49.662;8.408;2023-03-01T04:30:13;32.20;;;24.20;;
69172;SDS011;56280;49.662;8.408;2023-03-01T04:32:39;30.45;;;25.27;;
69172;SDS011;56280;49.662;8.408;2023-03-01T04:35:04;31.50;;;24.97;;
69172;SDS011;56280;49.662;8.408;2023-03-01T04:37:29;30.97;;;24.70;;
69172;SDS011;56280;49.662;8.408;2023-03-01T04:39:55;29.60;;;24.53;;
69172;SDS011;56280;49.662;8.408;2023-03-01T04:42:20;30.90;;;24.63;;
69172;SDS011;56280;49.662;8.408;2023-03-01T04:44:45;30.10;;;25.48;;
69172;SDS011;56280;49.662;8.408;2023-03-01T04:47:11;32.90;;;25.40;;
69172;SDS011;56280;49.662;8.408;2023-03-01T04:49:36;30.67;;;24.35;;
69172;SDS011;56280;49.662;8.408;2023-03-01T04:52:02;31.57;;;25.00;;
69172;SDS011;56280;49.662;8.408;2023-03-01T04:54:28;30.45;;;25.67;;
69172;SDS011;56280;49.662;8.408;2023-03-01T04:56:57;31.08;;;25.55;;
69172;SDS011;56280;49.662;8.408;2023-03-01T04:59:23;31.45;;;24.38;;
69172;SDS011;56280;49.662;8.408;2023-03-01T05:01:50;30.60;;;24.10;;
69172;SDS011;56280;49.662;8.408;2023-03-01T05:04:22;30.77;;;25.45;;
69172;SDS011;56280;49.662;8.408;2023-03-01T05:06:48;31.52;;;25.40;;
69172;SDS011;56280;49.662;8.408;2023-03-01T05:09:14;31.63;;;25.47;;
69172;SDS011;56280;49.662;8.408;2023-03-01T05:11:39;31.43;;;25.07;;
69172;SDS011;56280;49.662;8.408;2023-03-01T05:14:05;30.07;;;24.53;;
69172;SDS011;56280;49.662;8.408;2023-03-01T05:16:31;31.23;;;24.95;;
69172;SDS011;56280;49.662;8.408;2023-03-01T05:18:57;29.83;;;22.83;;
69172;SDS011;56280;49.662;8.408;2023-03-01T05:21:23;28.48;;;24.00;;
69172;SDS011;56280;49.662;8.408;2023-03-01T05:23:48;29.60;;;24.83;;
69172;SDS011;56280;49.662;8.408;2023-03-01T05:26:14;30.77;;;24.43;;
69172;SDS011;56280;49.662;8.408;2023-03-01T05:28:40;31.42;;;24.90;;
69172;SDS011;56280;49.662;8.408;2023-03-01T05:31:06;29.35;;;24.05;;
69172;SDS011;56280;49.662;8.408;2023-03-01T05:33:35;30.77;;;26.05;;
69172;SDS011;56280;49.662;8.408;2023-03-01T05:36:02;30.50;;;24.00;;
69172;SDS011;56280;49.662;8.408;2023-03-01T05:38:27;30.47;;;23.97;;
69172;SDS011;56280;49.662;8.408;2023-03-01T05:40:52;31.60;;;24.77;;
69172;SDS011;56280;49.662;8.408;2023-03-01T05:43:18;30.43;;;25.13;;
69172;SDS011;56280;49.662;8.408;2023-03-01T05:45:43;32.23;;;26.83;;
69172;SDS011;56280;49.662;8.408;2023-03-01T05:48:10;31.30;;;26.50;;
69172;SDS011;56280;49.662;8.408;2023-03-01T05:50:37;29.65;;;25.13;;
69172;SDS011;56280;49.662;8.408;2023-03-01T05:53:14;30.98;;;25.30;;
69172;SDS011;56280;49.662;8.408;2023-03-01T05:55:41;31.17;;;27.07;;
69172;SDS011;56280;49.662;8.408;2023-03-01T05:58:09;31.60;;;25.13;;
69172;SDS011;56280;49.662;8.408;2023-03-01T06:00:36;31.42;;;25.73;;
69172;SDS011;56280;49.662;8.408;2023-03-01T06:03:02;31.67;;;25.43;;
69172;SDS011;56280;49.662;8.408;2023-03-01T06:05:28;32.33;;;26.40;;
69172;SDS011;56280;49.662;8.408;2023-03-01T06:07:53;31.37;;;25.83;;
69172;SDS011;56280;49.662;8.408;2023-03-01T06:10:19;31.50;;;25.63;;
69172;SDS011;56280;49.662;8.408;2023-03-01T06:12:46;30.90;;;25.58;;
69172;SDS011;56280;49.662;8.408;2023-03-01T06:15:12;32.63;;;26.42;;
69172;SDS011;56280;49.662;8.408;2023-03-01T06:17:40;31.67;;;26.40;;
69172;SDS011;56280;49.662;8.408;2023-03-01T06:20:13;31.17;;;25.80;;
69172;SDS011;56280;49.662;8.408;2023-03-01T06:22:41;34.97;;;27.48;;
69172;SDS011;56280;49.662;8.408;2023-03-01T06:25:06;32.00;;;26.00;;
69172;SDS011;56280;49.662;8.408;2023-03-01T06:27:33;32.42;;;26.70;;
69172;SDS011;56280;49.662;8.408;2023-03-01T06:29:59;33.30;;;27.27;;
69172;SDS011;56280;49.662;8.408;2023-03-01T06:32:24;34.45;;;28.08;;
69172;SDS011;56280;49.662;8.408;2023-03-01T06:34:49;32.73;;;27.33;;
69172;SDS011;56280;49.662;8.408;2023-03-01T06:37:15;32.73;;;27.33;;
69172;SDS011;56280;49.662;8.408;2023-03-01T06:39:40;31.90;;;25.77;;
69172;SDS011;56280;49.662;8.408;2023-03-01T06:42:07;35.47;;;27.42;;
69172;SDS011;56280;49.662;8.408;2023-03-01T06:44:33;33.45;;;25.50;;
69172;SDS011;56280;49.662;8.408;2023-03-01T06:46:58;29.97;;;25.47;;
69172;SDS011;56280;49.662;8.408;2023-03-01T06:49:24;32.43;;;26.50;;
69172;SDS011;56280;49.662;8.408;2023-03-01T06:51:49;32.57;;;26.17;;
69172;SDS011;56280;49.662;8.408;2023-03-01T06:54:14;33.37;;;26.23;;
69172;SDS011;56280;49.662;8.408;2023-03-01T06:56:40;32.03;;;26.10;;
69172;SDS011;56280;49.662;8.408;2023-03-01T06:59:05;30.80;;;26.03;;
69172;SDS011;56280;49.662;8.408;2023-03-01T07:01:30;33.33;;;27.60;;
69172;SDS011;56280;49.662;8.408;2023-03-01T07:03:56;32.28;;;26.40;;
69172;SDS011;56280;49.662;8.408;2023-03-01T07:06:22;31.37;;;26.00;;
69172;SDS011;56280;49.662;8.408;2023-03-01T07:08:47;31.80;;;27.30;;
69172;SDS011;56280;49.662;8.408;2023-03-01T07:11:13;32.40;;;26.93;;
69172;SDS011;56280;49.662;8.408;2023-03-01T07:13:38;31.03;;;25.90;;
69172;SDS011;56280;49.662;8.408;2023-03-01T07:16:04;33.43;;;27.00;;
69172;SDS011;56280;49.662;8.408;2023-03-01T07:18:29;32.08;;;27.50;;
69172;SDS011;56280;49.662;8.408;2023-03-01T07:20:54;31.65;;;27.73;;
69172;SDS011;56280;49.662;8.408;2023-03-01T07:23:20;32.60;;;26.67;;
69172;SDS011;56280;49.662;8.408;2023-03-01T07:25:51;34.33;;;26.90;;
69172;SDS011;56280;49.662;8.408;2023-03-01T07:28:19;35.03;;;28.25;;
69172;SDS011;56280;49.662;8.408;2023-03-01T07:30:45;32.70;;;26.93;;
69172;SDS011;56280;49.662;8.408;2023-03-01T07:33:10;30.87;;;25.87;;
69172;SDS011;56280;49.662;8.408;2023-03-01T07:35:35;33.40;;;26.33;;
69172;SDS011;56280;49.662;8.408;2023-03-01T07:38:01;32.77;;;27.20;;
69172;SDS011;56280;49.662;8.408;2023-03-01T07:40:26;31.87;;;25.67;;
69172;SDS011;56280;49.662;8.408;2023-03-01T07:43:01;30.77;;;24.77;;
69172;SDS011;56280;49.662;8.408;2023-03-01T07:45:26;32.28;;;27.00;;
69172;SDS011;56280;49.662;8.408;2023-03-01T07:47:52;33.80;;;27.85;;
69172;SDS011;56280;49.662;8.408;2023-03-01T07:50:18;32.93;;;27.93;;
69172;SDS011;56280;49.662;8.408;2023-03-01T07:52:46;32.23;;;27.20;;
69172;SDS011;56280;49.662;8.408;2023-03-01T07:55:13;30.50;;;25.77;;
69172;SDS011;56280;49.662;8.408;2023-03-01T07:57:39;33.38;;;27.38;;
69172;SDS011;56280;49.662;8.408;2023-03-01T08:00:04;30.77;;;26.83;;
69172;SDS011;56280;49.662;8.408;2023-03-01T08:02:30;32.03;;;27.20;;
69172;SDS011;56280;49.662;8.408;2023-03-01T08:04:56;29.97;;;26.67;;
69172;SDS011;56280;49.662;8.408;2023-03-01T08:07:21;30.77;;;25.97;;
69172;SDS011;56280;49.662;8.408;2023-03-01T08:09:46;31.40;;;26.93;;
69172;SDS011;56280;49.662;8.408;2023-03-01T08:12:12;31.03;;;26.50;;
69172;SDS011;56280;49.662;8.408;2023-03-01T08:14:37;33.23;;;28.70;;
69172;SDS011;56280;49.662;8.408;2023-03-01T08:17:02;32.43;;;26.27;;
69172;SDS011;56280;49.662;8.408;2023-03-01T08:19:28;30.43;;;25.63;;
69172;SDS011;56280;49.662;8.408;2023-03-01T08:21:54;31.37;;;24.93;;
69172;SDS011;56280;49.662;8.408;2023-03-01T08:24:19;29.80;;;24.87;;
69172;SDS011;56280;49.662;8.408;2023-03-01T08:26:44;31.43;;;26.03;;
69172;SDS011;56280;49.662;8.408;2023-03-01T08:29:10;32.37;;;26.63;;
69172;SDS011;56280;49.662;8.408;2023-03-01T08:31:36;30.53;;;25.17;;
69172;SDS011;56280;49.662;8.408;2023-03-01T08:34:07;32.83;;;26.77;;
69172;SDS011;56280;49.662;8.408;2023-03-01T08:36:37;30.08;;;24.33;;
69172;SDS011;56280;49.662;8.408;2023-03-01T08:39:05;31.13;;;26.27;;
69172;SDS011;56280;49.662;8.408;2023-03-01T08:41:31;30.95;;;25.88;;
69172;SDS011;56280;49.662;8.408;2023-03-01T08:43:56;30.85;;;27.05;;
69172;SDS011;56280;49.662;8.408;2023-03-01T08:46:28;31.87;;;25.77;;
69172;SDS011;56280;49.662;8.408;2023-03-01T08:48:54;31.70;;;26.42;;
69172;SDS011;56280;49.662;8.408;2023-03-01T08:51:20;32.23;;;28.60;;
69172;SDS011;56280;49.662;8.408;2023-03-01T08:53:46;31.77;;;27.48;;
69172;SDS011;56280;49.662;8.408;2023-03-01T08:56:11;32.17;;;26.87;;
69172;SDS011;56280;49.662;8.408;2023-03-01T08:58:37;31.37;;;26.10;;
69172;SDS011;56280;49.662;8.408;2023-03-01T09:01:11;31.35;;;27.90;;
69172;SDS011;56280;49.662;8.408;2023-03-01T09:03:38;33.70;;;27.97;;
69172;SDS011;56280;49.662;8.408;2023-03-01T09:06:04;32.67;;;28.70;;
69172;SDS011;56280;49.662;8.408;2023-03-01T09:08:37;29.53;;;25.40;;
69172;SDS011;56280;49.662;8.408;2023-03-01T09:11:04;31.70;;;28.25;;
69172;SDS011;56280;49.662;8.408;2023-03-01T09:13:30;32.88;;;26.38;;
69172;SDS011;56280;49.662;8.408;2023-03-01T09:15:56;33.57;;;27.97;;
69172;SDS011;56280;49.662;8.408;2023-03-01T09:18:26;33.85;;;28.90;;
69172;SDS011;56280;49.662;8.408;2023-03-01T09:20:51;32.37;;;28.97;;
69172;SDS011;56280;49.662;8.408;2023-03-01T09:23:16;33.27;;;27.77;;
69172;SDS011;56280;49.662;8.408;2023-03-01T09:25:41;32.43;;;28.33;;
69172;SDS011;56280;49.662;8.408;2023-03-01T09:28:07;30.80;;;27.33;;
69172;SDS011;56280;49.662;8.408;2023-03-01T09:30:32;35.10;;;28.57;;
69172;SDS011;56280;49.662;8.408;2023-03-01T09:32:58;31.98;;;27.27;;
69172;SDS011;56280;49.662;8.408;2023-03-01T09:35:26;34.23;;;29.10;;
69172;SDS011;56280;49.662;8.408;2023-03-01T09:37:55;32.13;;;28.67;;
69172;SDS011;56280;49.662;8.408;2023-03-01T09:40:21;33.67;;;30.07;;
69172;SDS011;56280;49.662;8.408;2023-03-01T09:43:02;33.38;;;29.98;;
69172;SDS011;56280;49.662;8.408;2023-03-01T09:45:38;34.13;;;30.42;;
69172;SDS011;56280;49.662;8.408;2023-03-01T09:48:09;32.38;;;28.85;;
69172;SDS011;56280;49.662;8.408;2023-03-01T09:50:41;36.23;;;32.53;;
69172;SDS011;56280;49.662;8.408;2023-03-01T09:53:15;34.53;;;30.92;;
69172;SDS011;56280;49.662;8.408;2023-03-01T09:55:44;34.97;;;31.55;;
69172;SDS011;56280;49.662;8.408;2023-03-01T10:01:03;36.80;;;33.00;;
69172;SDS011;56280;49.662;8.408;2023-03-01T10:03:44;36.50;;;32.67;;
69172;SDS011;56280;49.662;8.408;2023-03-01T10:06:30;40.30;;;36.33;;
69172;SDS011;56280;49.662;8.408;2023-03-01T10:09:00;37.93;;;34.13;;
69172;SDS011;56280;49.662;8.408;2023-03-01T10:11:38;38.33;;;34.47;;
69172;SDS011;56280;49.662;8.408;2023-03-01T10:14:49;38.05;;;34.28;;
69172;SDS011;56280;49.662;8.408;2023-03-01T10:16:55;36.42;;;32.67;;
69172;SDS011;56280;49.662;8.408;2023-03-01T10:19:29;39.10;;;35.25;;
69172;SDS011;56280;49.662;8.408;2023-03-01T10:22:24;37.22;;;33.50;;
69172;SDS011;56280;49.662;8.408;2023-03-01T10:24:53;35.88;;;32.17;;
69172;SDS011;56280;49.662;8.408;2023-03-01T10:30:04;36.67;;;33.20;;
69172;SDS011;56280;49.662;8.408;2023-03-01T10:32:38;35.35;;;31.73;;
69172;SDS011;56280;49.662;8.408;2023-03-01T10:35:20;35.80;;;32.20;;
69172;SDS011;56280;49.662;8.408;2023-03-01T10:38:04;40.58;;;36.47;;
69172;SDS011;56280;49.662;8.408;2023-03-01T10:40:33;39.90;;;35.90;;
69172;SDS011;56280;49.662;8.408;2023-03-01T10:43:00;37.83;;;34.17;;
69172;SDS011;56280;49.662;8.408;2023-03-01T10:50:33;37.13;;;33.42;;
69172;SDS011;56280;49.662;8.408;2023-03-01T10:52:59;36.85;;;33.15;;
69172;SDS011;56280;49.662;8.408;2023-03-01T10:55:38;37.05;;;33.22;;
69172;SDS011;56280;49.662;8.408;2023-03-01T10:58:11;36.05;;;32.25;;
69172;SDS011;56280;49.662;8.408;2023-03-01T11:00:52;36.63;;;33.03;;
69172;SDS011;56280;49.662;8.408;2023-03-01T11:03:29;40.92;;;36.92;;
69172;SDS011;56280;49.662;8.408;2023-03-01T11:06:03;38.55;;;34.75;;
69172;SDS011;56280;49.662;8.408;2023-03-01T11:08:45;38.25;;;34.63;;
69172;SDS011;56280;49.662;8.408;2023-03-01T11:13:37;36.80;;;32.93;;
69172;SDS011;56280;49.662;8.408;2023-03-01T11:16:14;38.33;;;34.65;;
69172;SDS011;56280;49.662;8.408;2023-03-01T11:18:39;36.73;;;32.97;;
69172;SDS011;56280;49.662;8.408;2023-03-01T11:21:04;39.38;;;35.58;;
69172;SDS011;56280;49.662;8.408;2023-03-01T11:23:33;35.75;;;32.25;;
69172;SDS011;56280;49.662;8.408;2023-03-01T11:26:02;36.60;;;33.13;;
69172;SDS011;56280;49.662;8.408;2023-03-01T11:28:32;38.63;;;34.93;;
69172;SDS011;56280;49.662;8.408;2023-03-01T11:31:09;36.83;;;33.15;;
69172;SDS011;56280;49.662;8.408;2023-03-01T11:36:35;36.50;;;32.95;;
69172;SDS011;56280;49.662;8.408;2023-03-01T11:41:46;36.72;;;32.17;;
69172;SDS011;56280;49.662;8.408;2023-03-01T11:44:22;35.78;;;32.38;;
69172;SDS011;56280;49.662;8.408;2023-03-01T11:47:12;37.38;;;33.72;;
69172;SDS011;56280;49.662;8.408;2023-03-01T11:49:43;35.22;;;31.73;;
69172;SDS011;56280;49.662;8.408;2023-03-01T11:52:41;38.87;;;35.10;;
69172;SDS011;56280;49.662;8.408;2023-03-01T11:55:45;36.97;;;33.37;;
69172;SDS011;56280;49.662;8.408;2023-03-01T11:58:19;35.63;;;32.20;;
69172;SDS011;56280;49.662;8.408;2023-03-01T12:09:16;39.67;;;36.08;;
69172;SDS011;56280;49.662;8.408;2023-03-01T12:14:55;38.63;;;34.95;;
69172;SDS011;56280;49.662;8.408;2023-03-01T12:18:08;37.08;;;33.40;;
69172;SDS011;56280;49.662;8.408;2023-03-01T12:23:38;37.50;;;34.20;;
69172;SDS011;56280;49.662;8.408;2023-03-01T12:26:31;37.17;;;33.78;;
69172;SDS011;56280;49.662;8.408;2023-03-01T12:32:12;37.22;;;33.80;;
69172;SDS011;56280;49.662;8.408;2023-03-01T12:46:09;34.67;;;31.53;;
69172;SDS011;56280;49.662;8.408;2023-03-01T12:51:39;34.60;;;31.30;;
69172;SDS011;56280;49.662;8.408;2023-03-01T12:54:14;34.53;;;31.33;;
69172;SDS011;56280;49.662;8.408;2023-03-01T12:56:41;32.72;;;29.67;;
69172;SDS011;56280;49.662;8.408;2023-03-01T12:59:21;31.10;;;28.00;;
69172;SDS011;56280;49.662;8.408;2023-03-01T13:02:14;33.30;;;30.13;;
69172;SDS011;56280;49.662;8.408;2023-03-01T13:10:49;32.33;;;29.38;;
69172;SDS011;56280;49.662;8.408;2023-03-01T13:13:21;30.23;;;27.50;;
69172;SDS011;56280;49.662;8.408;2023-03-01T13:15:50;28.85;;;26.15;;
69172;SDS011;56280;49.662;8.408;2023-03-01T13:26:00;32.05;;;29.15;;
69172;SDS011;56280;49.662;8.408;2023-03-01T13:30:59;29.95;;;27.27;;
69172;SDS011;56280;49.662;8.408;2023-03-01T13:35:50;28.43;;;25.83;;
69172;SDS011;56280;49.662;8.408;2023-03-01T13:41:09;28.67;;;26.23;;
69172;SDS011;56280;49.662;8.408;2023-03-01T13:43:35;31.55;;;28.75;;
69172;SDS011;56280;49.662;8.408;2023-03-01T13:46:07;27.83;;;25.27;;
69172;SDS011;56280;49.662;8.408;2023-03-01T13:48:36;28.83;;;26.20;;
69172;SDS011;56280;49.662;8.408;2023-03-01T13:51:04;27.73;;;25.15;;
69172;SDS011;56280;49.662;8.408;2023-03-01T13:53:36;30.02;;;27.33;;
69172;SDS011;56280;49.662;8.408;2023-03-01T13:56:15;27.23;;;24.80;;
69172;SDS011;56280;49.662;8.408;2023-03-01T13:58:52;27.02;;;24.63;;
69172;SDS011;56280;49.662;8.408;2023-03-01T14:01:33;28.60;;;26.10;;
69172;SDS011;56280;49.662;8.408;2023-03-01T14:04:00;29.27;;;26.77;;
69172;SDS011;56280;49.662;8.408;2023-03-01T14:06:31;26.50;;;24.02;;
69172;SDS011;56280;49.662;8.408;2023-03-01T14:09:17;29.15;;;26.50;;
69172;SDS011;56280;49.662;8.408;2023-03-01T14:22:47;27.70;;;25.23;;
69172;SDS011;56280;49.662;8.408;2023-03-01T14:27:52;29.55;;;26.85;;
69172;SDS011;56280;49.662;8.408;2023-03-01T14:30:22;28.83;;;25.95;;
69172;SDS011;56280;49.662;8.408;2023-03-01T14:35:21;27.33;;;24.92;;
69172;SDS011;56280;49.662;8.408;2023-03-01T14:37:48;27.65;;;25.15;;
69172;SDS011;56280;49.662;8.408;2023-03-01T14:40:25;27.38;;;25.05;;
69172;SDS011;56280;49.662;8.408;2023-03-01T14:42:53;28.70;;;26.10;;
69172;SDS011;56280;49.662;8.408;2023-03-01T14:45:21;27.43;;;25.00;;
69172;SDS011;56280;49.662;8.408;2023-03-01T14:47:50;28.50;;;25.97;;
69172;SDS011;56280;49.662;8.408;2023-03-01T14:50:26;28.03;;;25.73;;
69172;SDS011;56280;49.662;8.408;2023-03-01T14:52:54;29.35;;;26.33;;
69172;SDS011;56280;49.662;8.408;2023-03-01T14:55:33;29.83;;;27.20;;
69172;SDS011;56280;49.662;8.408;2023-03-01T14:58:05;29.63;;;26.98;;
69172;SDS011;56280;49.662;8.408;2023-03-01T15:00:34;27.90;;;25.45;;
69172;SDS011;56280;49.662;8.408;2023-03-01T15:03:14;27.73;;;25.20;;
69172;SDS011;56280;49.662;8.408;2023-03-01T15:05:47;27.55;;;25.15;;
69172;SDS011;56280;49.662;8.408;2023-03-01T15:08:31;28.63;;;26.07;;
69172;SDS011;56280;49.662;8.408;2023-03-01T15:13:38;27.65;;;25.25;;
69172;SDS011;56280;49.662;8.408;2023-03-01T15:18:34;26.47;;;24.10;;
69172;SDS011;56280;49.662;8.408;2023-03-01T15:21:17;28.27;;;25.70;;
69172;SDS011;56280;49.662;8.408;2023-03-01T15:23:47;26.80;;;24.45;;
69172;SDS011;56280;49.662;8.408;2023-03-01T15:26:32;27.20;;;24.83;;
69172;SDS011;56280;49.662;8.408;2023-03-01T15:29:26;27.77;;;25.37;;
69172;SDS011;56280;49.662;8.408;2023-03-01T15:32:00;27.35;;;25.02;;
69172;SDS011;56280;49.662;8.408;2023-03-01T15:37:02;29.02;;;26.70;;
69172;SDS011;56280;49.662;8.408;2023-03-01T15:42:04;27.75;;;25.40;;
69172;SDS011;56280;49.662;8.408;2023-03-01T15:44:32;26.52;;;24.02;;
69172;SDS011;56280;49.662;8.408;2023-03-01T15:46:59;29.75;;;27.25;;
69172;SDS011;56280;49.662;8.408;2023-03-01T15:52:02;28.20;;;25.92;;
69172;SDS011;56280;49.662;8.408;2023-03-01T15:54:28;26.77;;;24.27;;
69172;SDS011;56280;49.662;8.408;2023-03-01T15:56:54;28.60;;;26.00;;
69172;SDS011;56280;49.662;8.408;2023-03-01T15:59:19;29.40;;;27.00;;
69172;SDS011;56280;49.662;8.408;2023-03-01T16:01:47;28.50;;;25.90;;
69172;SDS011;56280;49.662;8.408;2023-03-01T16:04:13;28.03;;;25.53;;
69172;SDS011;56280;49.662;8.408;2023-03-01T16:06:50;29.38;;;26.98;;
69172;SDS011;56280;49.662;8.408;2023-03-01T16:09:20;28.10;;;25.65;;
69172;SDS011;56280;49.662;8.408;2023-03-01T16:11:49;29.40;;;26.90;;
69172;SDS011;56280;49.662;8.408;2023-03-01T16:14:15;26.85;;;24.48;;
69172;SDS011;56280;49.662;8.408;2023-03-01T16:16:41;28.65;;;26.25;;
69172;SDS011;56280;49.662;8.408;2023-03-01T16:19:07;29.50;;;27.07;;
69172;SDS011;56280;49.662;8.408;2023-03-01T16:21:32;29.00;;;26.53;;